sensor_id;sensor_type;location;lat;lon;timestamp;P1;durP1;ratioP1;P2;durP2;ratioP2
7454;SDS011;3769;51.208;4.454;2024-01-11T00:02:23;24.4;;;18.6;;
7454;SDS011;3769;51.208;4.454;2024-01-11T00:07:23;26.3;;;18.4;;
7454;SDS011;3769;51.208;4.454;2024-01-11T00:12:23;27.4;;;19;;
7454;SDS011;3769;51.208;4.454;2024-01-11T00:17:23;22.2;;;17.5;;
7454;SDS011;3769;51.208;4.454;2024-01-11T00:22:23;28.5;;;19.4;;
7454;SDS011;3769;51.208;4.454;2024-01-11T00:27:23;26.4;;;18.6;;
7454;SDS011;3769;51.208;4.454;2024-01-11T00:32:23;26.5;;;20;;
7454;SDS011;3769;51.208;4.454;2024-01-11T00:37:23;27.4;;;19.7;;
7454;SDS011;3769;51.208;4.454;2024-01-11T00:42:23;24.3;;;19.9;;
7454;SDS011;3769;51.208;4.454;2024-01-11T00:47:23;32.9;;;20.1;;
7454;SDS011;3769;51.208;4.454;2024-01-11T00:52:23;25.2;;;20;;
7454;SDS011;3769;51.208;4.454;2024-01-11T00:57:23;28.1;;;20;;
7454;SDS011;3769;51.208;4.454;2024-01-11T01:02:23;27;;;20.8;;
7454;SDS011;3769;51.208;4.454;2024-01-11T01:07:23;26.2;;;20.8;;
7454;SDS011;3769;51.208;4.454;2024-01-11T01:12:23;29.9;;;21.5;;
7454;SDS011;3769;51.208;4.454;2024-01-11T01:17:23;29;;;21.6;;
7454;SDS011;3769;51.208;4.454;2024-01-11T01:22:23;28.1;;;22;;
7454;SDS011;3769;51.208;4.454;2024-01-11T01:27:23;30.4;;;22.8;;
7454;SDS011;3769;51.208;4.454;2024-01-11T01:32:23;31.8;;;22.8;;
7454;SDS011;3769;51.208;4.454;2024-01-11T01:37:23;31.1;;;22.4;;
7454;SDS011;3769;51.208;4.454;2024-01-11T01:42:23;26.2;;;21.7;;
7454;SDS011;3769;51.208;4.454;2024-01-11T01:47:23;31.1;;;22.9;;
7454;SDS011;3769;51.208;4.454;2024-01-11T01:52:23;30.9;;;22.9;;
7454;SDS011;3769;51.208;4.454;2024-01-11T01:57:23;27.8;;;22.9;;
7454;SDS011;3769;51.208;4.454;2024-01-11T02:02:23;29.4;;;22.2;;
7454;SDS011;3769;51.208;4.454;2024-01-11T02:07:23;29.7;;;23.1;;
7454;SDS011;3769;51.208;4.454;2024-01-11T02:12:23;29.5;;;23.4;;
7454;SDS011;3769;51.208;4.454;2024-01-11T02:17:23;29.1;;;22.7;;
7454;SDS011;3769;51.208;4.454;2024-01-11T02:22:26;29.4;;;23.4;;
7454;SDS011;3769;51.208;4.454;2024-01-11T02:27:23;34.3;;;24.1;;
7454;SDS011;3769;51.208;4.454;2024-01-11T02:32:23;29.6;;;22.7;;
7454;SDS011;3769;51.208;4.454;2024-01-11T02:37:23;28.4;;;23.5;;
7454;SDS011;3769;51.208;4.454;2024-01-11T02:42:23;29.6;;;23.5;;
7454;SDS011;3769;51.208;4.454;2024-01-11T02:47:23;33.6;;;23;;
7454;SDS011;3769;51.208;4.454;2024-01-11T02:52:23;32.2;;;23.1;;
7454;SDS011;3769;51.208;4.454;2024-01-11T02:57:23;29.8;;;24.3;;
7454;SDS011;3769;51.208;4.454;2024-01-11T03:02:23;30.1;;;22.9;;
7454;SDS011;3769;51.208;4.454;2024-01-11T03:07:23;29;;;23.4;;
7454;SDS011;3769;51.208;4.454;2024-01-11T03:12:23;29.3;;;24.4;;
7454;SDS011;3769;51.208;4.454;2024-01-11T03:17:54;21.2;;;16.2;;
7454;SDS011;3769;51.208;4.454;2024-01-11T03:22:54;30.9;;;24.2;;
7454;SDS011;3769;51.208;4.454;2024-01-11T03:27:54;28.7;;;23.2;;
7454;SDS011;3769;51.208;4.454;2024-01-11T03:32:54;32.5;;;23.8;;
7454;SDS011;3769;51.208;4.454;2024-01-11T03:37:54;30.6;;;23.5;;
7454;SDS011;3769;51.208;4.454;2024-01-11T03:42:54;28.4;;;23;;
7454;SDS011;3769;51.208;4.454;2024-01-11T03:47:54;28.8;;;22.6;;
7454;SDS011;3769;51.208;4.454;2024-01-11T03:52:54;30.6;;;23.9;;
7454;SDS011;3769;51.208;4.454;2024-01-11T03:57:54;29.9;;;23.3;;
7454;SDS011;3769;51.208;4.454;2024-01-11T04:02:54;30;;;23.9;;
7454;SDS011;3769;51.208;4.454;2024-01-11T04:07:54;31;;;23.4;;
7454;SDS011;3769;51.208;4.454;2024-01-11T04:12:54;28.8;;;23.4;;
7454;SDS011;3769;51.208;4.454;2024-01-11T04:17:54;33.4;;;24.8;;
7454;SDS011;3769;51.208;4.454;2024-01-11T04:22:54;30.1;;;24;;
7454;SDS011;3769;51.208;4.454;2024-01-11T04:27:54;30.2;;;23.9;;
7454;SDS011;3769;51.208;4.454;2024-01-11T04:32:54;32.7;;;23.3;;
7454;SDS011;3769;51.208;4.454;2024-01-11T04:37:54;33.3;;;23.9;;
7454;SDS011;3769;51.208;4.454;2024-01-11T04:42:54;28.8;;;23.1;;
7454;SDS011;3769;51.208;4.454;2024-01-11T04:47:54;29.6;;;24;;
7454;SDS011;3769;51.208;4.454;2024-01-11T04:52:54;31.9;;;24.7;;
7454;SDS011;3769;51.208;4.454;2024-01-11T04:57:54;35.7;;;23.7;;
7454;SDS011;3769;51.208;4.454;2024-01-11T05:02:54;31.9;;;22.8;;
7454;SDS011;3769;51.208;4.454;2024-01-11T05:07:54;28.8;;;22.3;;
7454;SDS011;3769;51.208;4.454;2024-01-11T05:12:54;30.7;;;22.8;;
7454;SDS011;3769;51.208;4.454;2024-01-11T05:17:55;29.1;;;23.2;;
7454;SDS011;3769;51.208;4.454;2024-01-11T05:22:54;30.2;;;23.3;;
7454;SDS011;3769;51.208;4.454;2024-01-11T05:27:54;27.8;;;21.4;;
7454;SDS011;3769;51.208;4.454;2024-01-11T05:32:54;33.1;;;22.7;;
7454;SDS011;3769;51.208;4.454;2024-01-11T05:37:54;36.3;;;22;;
7454;SDS011;3769;51.208;4.454;2024-01-11T05:42:54;25;;;20.1;;
7454;SDS011;3769;51.208;4.454;2024-01-11T05:47:54;28.7;;;19.6;;
7454;SDS011;3769;51.208;4.454;2024-01-11T05:52:54;27.4;;;19.6;;
7454;SDS011;3769;51.208;4.454;2024-01-11T05:57:54;26.7;;;19.1;;
7454;SDS011;3769;51.208;4.454;2024-01-11T06:02:54;28.3;;;18.9;;
7454;SDS011;3769;51.208;4.454;2024-01-11T06:07:54;28.4;;;19.1;;
7454;SDS011;3769;51.208;4.454;2024-01-11T06:12:54;32.9;;;19.1;;
7454;SDS011;3769;51.208;4.454;2024-01-11T06:17:54;25.3;;;18.4;;
7454;SDS011;3769;51.208;4.454;2024-01-11T06:22:54;27.5;;;18.6;;
7454;SDS011;3769;51.208;4.454;2024-01-11T06:27:54;28.3;;;19;;
7454;SDS011;3769;51.208;4.454;2024-01-11T06:32:54;27.8;;;17.9;;
7454;SDS011;3769;51.208;4.454;2024-01-11T06:37:54;31.5;;;17.9;;
7454;SDS011;3769;51.208;4.454;2024-01-11T06:42:54;27.7;;;19.1;;
7454;SDS011;3769;51.208;4.454;2024-01-11T06:47:54;28.2;;;18.5;;
7454;SDS011;3769;51.208;4.454;2024-01-11T06:52:54;24.1;;;16.6;;
7454;SDS011;3769;51.208;4.454;2024-01-11T06:57:54;27;;;18.1;;
7454;SDS011;3769;51.208;4.454;2024-01-11T07:02:54;29.8;;;17.2;;
7454;SDS011;3769;51.208;4.454;2024-01-11T07:07:54;25.8;;;16.8;;
7454;SDS011;3769;51.208;4.454;2024-01-11T07:12:54;22.6;;;16.9;;
7454;SDS011;3769;51.208;4.454;2024-01-11T07:17:54;37.4;;;17.5;;
7454;SDS011;3769;51.208;4.454;2024-01-11T07:22:54;28;;;17.5;;
7454;SDS011;3769;51.208;4.454;2024-01-11T07:27:54;27.5;;;17.8;;
7454;SDS011;3769;51.208;4.454;2024-01-11T07:32:54;27.1;;;17.9;;
7454;SDS011;3769;51.208;4.454;2024-01-11T07:37:54;25.7;;;18;;
7454;SDS011;3769;51.208;4.454;2024-01-11T07:42:54;33.7;;;18.7;;
7454;SDS011;3769;51.208;4.454;2024-01-11T07:47:54;27.3;;;17.6;;
7454;SDS011;3769;51.208;4.454;2024-01-11T07:52:54;24.9;;;18.2;;
7454;SDS011;3769;51.208;4.454;2024-01-11T07:57:54;28.5;;;18.7;;
7454;SDS011;3769;51.208;4.454;2024-01-11T08:02:54;25;;;18.6;;
7454;SDS011;3769;51.208;4.454;2024-01-11T08:07:54;26.4;;;19;;
7454;SDS011;3769;51.208;4.454;2024-01-11T08:12:54;29.5;;;19.2;;
7454;SDS011;3769;51.208;4.454;2024-01-11T08:17:54;33.6;;;18.4;;
7454;SDS011;3769;51.208;4.454;2024-01-11T08:22:54;25.6;;;18.1;;
7454;SDS011;3769;51.208;4.454;2024-01-11T08:27:54;28.1;;;19.3;;
7454;SDS011;3769;51.208;4.454;2024-01-11T08:32:54;27.3;;;18.5;;
7454;SDS011;3769;51.208;4.454;2024-01-11T08:37:54;26.5;;;19.2;;
7454;SDS011;3769;51.208;4.454;2024-01-11T08:42:54;25.6;;;18.7;;
7454;SDS011;3769;51.208;4.454;2024-01-11T08:47:56;26.1;;;19.3;;
7454;SDS011;3769;51.208;4.454;2024-01-11T08:52:54;28.6;;;20.8;;
7454;SDS011;3769;51.208;4.454;2024-01-11T08:57:54;27.9;;;19;;
7454;SDS011;3769;51.208;4.454;2024-01-11T09:02:54;26.5;;;19.1;;
7454;SDS011;3769;51.208;4.454;2024-01-11T09:07:54;28.3;;;20.2;;
7454;SDS011;3769;51.208;4.454;2024-01-11T09:12:54;31;;;20;;
7454;SDS011;3769;51.208;4.454;2024-01-11T09:17:54;28.7;;;19.4;;
7454;SDS011;3769;51.208;4.454;2024-01-11T09:22:54;27.9;;;18.5;;
7454;SDS011;3769;51.208;4.454;2024-01-11T09:27:54;28.3;;;19.1;;
7454;SDS011;3769;51.208;4.454;2024-01-11T09:32:54;25.6;;;20.1;;
7454;SDS011;3769;51.208;4.454;2024-01-11T09:37:54;25.7;;;21.5;;
7454;SDS011;3769;51.208;4.454;2024-01-11T09:42:54;30.4;;;22.3;;
7454;SDS011;3769;51.208;4.454;2024-01-11T09:47:54;29.9;;;20.9;;
7454;SDS011;3769;51.208;4.454;2024-01-11T09:52:54;25.3;;;18.4;;
7454;SDS011;3769;51.208;4.454;2024-01-11T09:57:56;26.7;;;19.2;;
7454;SDS011;3769;51.208;4.454;2024-01-11T10:02:54;25.1;;;19.8;;
7454;SDS011;3769;51.208;4.454;2024-01-11T10:07:54;32.1;;;22;;
7454;SDS011;3769;51.208;4.454;2024-01-11T10:12:54;30.2;;;20.7;;
7454;SDS011;3769;51.208;4.454;2024-01-11T10:17:54;26.1;;;19.2;;
7454;SDS011;3769;51.208;4.454;2024-01-11T10:22:54;31.7;;;19.9;;
7454;SDS011;3769;51.208;4.454;2024-01-11T10:27:54;30.4;;;21.1;;
7454;SDS011;3769;51.208;4.454;2024-01-11T10:32:54;33.1;;;22.6;;
7454;SDS011;3769;51.208;4.454;2024-01-11T10:37:54;28.5;;;21.8;;
7454;SDS011;3769;51.208;4.454;2024-01-11T10:42:54;30;;;22.2;;
7454;SDS011;3769;51.208;4.454;2024-01-11T10:47:55;31.4;;;23.6;;
7454;SDS011;3769;51.208;4.454;2024-01-11T10:53:02;28.8;;;22.8;;
7454;SDS011;3769;51.208;4.454;2024-01-11T10:57:54;29.2;;;22.7;;
7454;SDS011;3769;51.208;4.454;2024-01-11T11:02:55;32.3;;;22.7;;
7454;SDS011;3769;51.208;4.454;2024-01-11T11:07:54;28.4;;;22.2;;
7454;SDS011;3769;51.208;4.454;2024-01-11T11:12:54;29;;;22.2;;
7454;SDS011;3769;51.208;4.454;2024-01-11T11:17:54;30;;;22.2;;
7454;SDS011;3769;51.208;4.454;2024-01-11T11:23:10;28.1;;;21.9;;
7454;SDS011;3769;51.208;4.454;2024-01-11T11:27:54;27.4;;;19.8;;
7454;SDS011;3769;51.208;4.454;2024-01-11T11:32:54;27.9;;;20.1;;
7454;SDS011;3769;51.208;4.454;2024-01-11T11:37:55;29.4;;;21.1;;
7454;SDS011;3769;51.208;4.454;2024-01-11T11:42:54;28.9;;;21.2;;
7454;SDS011;3769;51.208;4.454;2024-01-11T11:47:54;28.8;;;20.4;;
7454;SDS011;3769;51.208;4.454;2024-01-11T11:52:55;29.1;;;20.5;;
7454;SDS011;3769;51.208;4.454;2024-01-11T11:57:54;34.9;;;23.7;;
7454;SDS011;3769;51.208;4.454;2024-01-11T12:02:54;26.4;;;23.5;;
7454;SDS011;3769;51.208;4.454;2024-01-11T12:07:54;30.5;;;24.6;;
7454;SDS011;3769;51.208;4.454;2024-01-11T12:12:54;28.3;;;23.9;;
7454;SDS011;3769;51.208;4.454;2024-01-11T12:17:58;33.3;;;26.6;;
7454;SDS011;3769;51.208;4.454;2024-01-11T12:22:54;28;;;24.8;;
7454;SDS011;3769;51.208;4.454;2024-01-11T12:27:54;28.7;;;24.7;;
7454;SDS011;3769;51.208;4.454;2024-01-11T12:32:54;27.9;;;23.6;;
7454;SDS011;3769;51.208;4.454;2024-01-11T12:37:55;28.9;;;24.6;;
7454;SDS011;3769;51.208;4.454;2024-01-11T12:42:54;30.4;;;24.6;;
7454;SDS011;3769;51.208;4.454;2024-01-11T12:47:55;28.9;;;23.9;;
7454;SDS011;3769;51.208;4.454;2024-01-11T12:53:10;29.4;;;23.3;;
7454;SDS011;3769;51.208;4.454;2024-01-11T12:58:10;26.3;;;21.5;;
7454;SDS011;3769;51.208;4.454;2024-01-11T13:02:54;28.5;;;21;;
7454;SDS011;3769;51.208;4.454;2024-01-11T13:07:54;34.6;;;23.8;;
7454;SDS011;3769;51.208;4.454;2024-01-11T13:12:55;27.6;;;22.3;;
7454;SDS011;3769;51.208;4.454;2024-01-11T13:17:55;28.8;;;21.5;;
7454;SDS011;3769;51.208;4.454;2024-01-11T13:23:26;30;;;21.7;;
7454;SDS011;3769;51.208;4.454;2024-01-11T13:27:54;28.4;;;21.1;;
7454;SDS011;3769;51.208;4.454;2024-01-11T13:32:54;29;;;21.6;;
7454;SDS011;3769;51.208;4.454;2024-01-11T13:37:54;25.1;;;20.7;;
7454;SDS011;3769;51.208;4.454;2024-01-11T13:42:54;25.7;;;20.9;;
7454;SDS011;3769;51.208;4.454;2024-01-11T13:47:54;27.5;;;21.4;;
7454;SDS011;3769;51.208;4.454;2024-01-11T13:52:54;29.3;;;22.6;;
7454;SDS011;3769;51.208;4.454;2024-01-11T13:57:54;26.6;;;21.3;;
7454;SDS011;3769;51.208;4.454;2024-01-11T14:02:54;25.5;;;22.3;;
7454;SDS011;3769;51.208;4.454;2024-01-11T14:07:54;27.6;;;23;;
7454;SDS011;3769;51.208;4.454;2024-01-11T14:12:54;29.1;;;24.1;;
7454;SDS011;3769;51.208;4.454;2024-01-11T14:17:54;28.2;;;25.1;;
7454;SDS011;3769;51.208;4.454;2024-01-11T14:22:54;26.5;;;24;;
7454;SDS011;3769;51.208;4.454;2024-01-11T14:27:54;25.3;;;22.9;;
7454;SDS011;3769;51.208;4.454;2024-01-11T14:32:54;24.8;;;22.2;;
7454;SDS011;3769;51.208;4.454;2024-01-11T14:37:54;22.4;;;20.2;;
7454;SDS011;3769;51.208;4.454;2024-01-11T14:42:54;21.9;;;17.6;;
7454;SDS011;3769;51.208;4.454;2024-01-11T14:47:54;19.9;;;17.5;;
7454;SDS011;3769;51.208;4.454;2024-01-11T14:52:54;21;;;16.8;;
7454;SDS011;3769;51.208;4.454;2024-01-11T14:57:54;19.1;;;16.8;;
7454;SDS011;3769;51.208;4.454;2024-01-11T15:02:55;26.3;;;17.4;;
7454;SDS011;3769;51.208;4.454;2024-01-11T15:07:54;19.5;;;16.3;;
7454;SDS011;3769;51.208;4.454;2024-01-11T15:12:54;22.1;;;18.1;;
7454;SDS011;3769;51.208;4.454;2024-01-11T15:17:54;20.2;;;16.1;;
7454;SDS011;3769;51.208;4.454;2024-01-11T15:22:54;17.4;;;15.5;;
7454;SDS011;3769;51.208;4.454;2024-01-11T15:27:54;18.1;;;15.4;;
7454;SDS011;3769;51.208;4.454;2024-01-11T15:32:54;19.4;;;15.6;;
7454;SDS011;3769;51.208;4.454;2024-01-11T15:37:54;22.1;;;15.8;;
7454;SDS011;3769;51.208;4.454;2024-01-11T15:42:54;19.9;;;16.2;;
7454;SDS011;3769;51.208;4.454;2024-01-11T15:47:54;18.5;;;16.2;;
7454;SDS011;3769;51.208;4.454;2024-01-11T15:52:54;19.9;;;16.8;;
7454;SDS011;3769;51.208;4.454;2024-01-11T15:57:54;20.5;;;18.3;;
7454;SDS011;3769;51.208;4.454;2024-01-11T16:02:54;20.7;;;18.3;;
7454;SDS011;3769;51.208;4.454;2024-01-11T16:07:54;21.6;;;19;;
7454;SDS011;3769;51.208;4.454;2024-01-11T16:12:54;23.8;;;21.3;;
7454;SDS011;3769;51.208;4.454;2024-01-11T16:17:54;23.6;;;21.1;;
7454;SDS011;3769;51.208;4.454;2024-01-11T16:22:54;24.6;;;22.2;;
7454;SDS011;3769;51.208;4.454;2024-01-11T16:27:54;24.8;;;22.3;;
7454;SDS011;3769;51.208;4.454;2024-01-11T16:32:54;27.3;;;24.6;;
7454;SDS011;3769;51.208;4.454;2024-01-11T16:37:54;27.3;;;24.7;;
7454;SDS011;3769;51.208;4.454;2024-01-11T16:42:54;29.7;;;26.8;;
7454;SDS011;3769;51.208;4.454;2024-01-11T16:47:54;29.7;;;27.1;;
7454;SDS011;3769;51.208;4.454;2024-01-11T16:52:54;30.9;;;28.1;;
7454;SDS011;3769;51.208;4.454;2024-01-11T16:57:54;32.1;;;28.8;;
7454;SDS011;3769;51.208;4.454;2024-01-11T17:02:54;32.5;;;29.6;;
7454;SDS011;3769;51.208;4.454;2024-01-11T17:07:54;36.8;;;33.4;;
7454;SDS011;3769;51.208;4.454;2024-01-11T17:12:54;34.3;;;31.3;;
7454;SDS011;3769;51.208;4.454;2024-01-11T17:17:54;34.2;;;31;;
7454;SDS011;3769;51.208;4.454;2024-01-11T17:22:54;37.8;;;34.2;;
7454;SDS011;3769;51.208;4.454;2024-01-11T17:27:54;37.7;;;34.2;;
7454;SDS011;3769;51.208;4.454;2024-01-11T17:32:54;42;;;37.8;;
7454;SDS011;3769;51.208;4.454;2024-01-11T17:37:54;39.8;;;35.9;;
7454;SDS011;3769;51.208;4.454;2024-01-11T17:42:56;32.7;;;27.9;;
7454;SDS011;3769;51.208;4.454;2024-01-11T17:47:54;36;;;32.1;;
7454;SDS011;3769;51.208;4.454;2024-01-11T17:52:54;37.4;;;33.3;;
7454;SDS011;3769;51.208;4.454;2024-01-11T17:57:54;37.2;;;33.5;;
7454;SDS011;3769;51.208;4.454;2024-01-11T18:02:54;37.1;;;33.4;;
7454;SDS011;3769;51.208;4.454;2024-01-11T18:07:56;36.3;;;32.6;;
7454;SDS011;3769;51.208;4.454;2024-01-11T18:12:54;37.6;;;33.5;;
7454;SDS011;3769;51.208;4.454;2024-01-11T18:17:54;37.3;;;33.5;;
7454;SDS011;3769;51.208;4.454;2024-01-11T18:22:54;34.3;;;30.9;;
7454;SDS011;3769;51.208;4.454;2024-01-11T18:27:54;33.6;;;30.1;;
7454;SDS011;3769;51.208;4.454;2024-01-11T18:32:54;32.2;;;28.8;;
7454;SDS011;3769;51.208;4.454;2024-01-11T18:37:54;28.9;;;26;;
7454;SDS011;3769;51.208;4.454;2024-01-11T18:42:54;27.6;;;24.7;;
7454;SDS011;3769;51.208;4.454;2024-01-11T18:47:54;27.1;;;23.7;;
7454;SDS011;3769;51.208;4.454;2024-01-11T18:52:55;27.9;;;23.6;;
7454;SDS011;3769;51.208;4.454;2024-01-11T18:57:54;25.1;;;21.3;;
7454;SDS011;3769;51.208;4.454;2024-01-11T19:02:54;27.2;;;21;;
7454;SDS011;3769;51.208;4.454;2024-01-11T19:07:54;26.5;;;21.2;;
7454;SDS011;3769;51.208;4.454;2024-01-11T19:12:54;28.4;;;20.1;;
7454;SDS011;3769;51.208;4.454;2024-01-11T19:17:54;28.5;;;20.7;;
7454;SDS011;3769;51.208;4.454;2024-01-11T19:22:54;28.9;;;20.4;;
7454;SDS011;3769;51.208;4.454;2024-01-11T19:27:54;25.7;;;19.1;;
7454;SDS011;3769;51.208;4.454;2024-01-11T19:32:54;30.7;;;20;;
7454;SDS011;3769;51.208;4.454;2024-01-11T19:37:54;29.6;;;21.5;;
7454;SDS011;3769;51.208;4.454;2024-01-11T19:42:54;30.4;;;21.2;;
7454;SDS011;3769;51.208;4.454;2024-01-11T19:47:55;29.5;;;20.8;;
7454;SDS011;3769;51.208;4.454;2024-01-11T19:52:54;27.2;;;21.1;;
7454;SDS011;3769;51.208;4.454;2024-01-11T19:57:55;27.8;;;20.5;;
7454;SDS011;3769;51.208;4.454;2024-01-11T20:02:54;30.3;;;22;;
7454;SDS011;3769;51.208;4.454;2024-01-11T20:07:54;34.1;;;22.1;;
7454;SDS011;3769;51.208;4.454;2024-01-11T20:12:54;31.2;;;21.8;;
7454;SDS011;3769;51.208;4.454;2024-01-11T20:17:54;32.1;;;20.9;;
7454;SDS011;3769;51.208;4.454;2024-01-11T20:22:54;34.5;;;22.7;;
7454;SDS011;3769;51.208;4.454;2024-01-11T20:27:55;38.3;;;24;;
7454;SDS011;3769;51.208;4.454;2024-01-11T20:32:54;34.6;;;24.4;;
7454;SDS011;3769;51.208;4.454;2024-01-11T20:37:54;36.5;;;25.1;;
7454;SDS011;3769;51.208;4.454;2024-01-11T20:42:54;38.1;;;25.1;;
7454;SDS011;3769;51.208;4.454;2024-01-11T20:47:54;33.5;;;23.5;;
7454;SDS011;3769;51.208;4.454;2024-01-11T20:52:54;33.5;;;22.5;;
7454;SDS011;3769;51.208;4.454;2024-01-11T20:57:54;36;;;23.4;;
7454;SDS011;3769;51.208;4.454;2024-01-11T21:02:54;34.1;;;23.5;;
7454;SDS011;3769;51.208;4.454;2024-01-11T21:07:54;32.7;;;22.2;;
7454;SDS011;3769;51.208;4.454;2024-01-11T21:12:54;33.1;;;23.2;;
7454;SDS011;3769;51.208;4.454;2024-01-11T21:17:54;32.4;;;23.4;;
7454;SDS011;3769;51.208;4.454;2024-01-11T21:22:54;33.5;;;23.7;;
7454;SDS011;3769;51.208;4.454;2024-01-11T21:27:55;34.1;;;23.1;;
7454;SDS011;3769;51.208;4.454;2024-01-11T21:32:54;33.7;;;22.5;;
7454;SDS011;3769;51.208;4.454;2024-01-11T21:37:54;36.9;;;25.1;;
7454;SDS011;3769;51.208;4.454;2024-01-11T21:42:54;32.8;;;24.3;;
7454;SDS011;3769;51.208;4.454;2024-01-11T21:47:54;35.7;;;25.2;;
7454;SDS011;3769;51.208;4.454;2024-01-11T21:52:54;35.8;;;24.6;;
7454;SDS011;3769;51.208;4.454;2024-01-11T21:57:54;35.7;;;24.4;;
7454;SDS011;3769;51.208;4.454;2024-01-11T22:02:54;35.3;;;25.3;;
7454;SDS011;3769;51.208;4.454;2024-01-11T22:07:54;34.6;;;25.8;;
7454;SDS011;3769;51.208;4.454;2024-01-11T22:12:54;41.4;;;28.6;;
7454;SDS011;3769;51.208;4.454;2024-01-11T22:17:54;40.7;;;27.2;;
7454;SDS011;3769;51.208;4.454;2024-01-11T22:22:55;38.2;;;27.9;;
7454;SDS011;3769;51.208;4.454;2024-01-11T22:27:54;36.7;;;29.2;;
7454;SDS011;3769;51.208;4.454;2024-01-11T22:32:55;42;;;30.1;;
7454;SDS011;3769;51.208;4.454;2024-01-11T22:37:54;39.8;;;31;;
7454;SDS011;3769;51.208;4.454;2024-01-11T22:42:54;40.6;;;29.6;;
7454;SDS011;3769;51.208;4.454;2024-01-11T22:47:54;37.1;;;30;;
7454;SDS011;3769;51.208;4.454;2024-01-11T22:52:55;43.5;;;33.6;;
7454;SDS011;3769;51.208;4.454;2024-01-11T22:57:54;41.2;;;32.8;;
7454;SDS011;3769;51.208;4.454;2024-01-11T23:02:54;43;;;32.1;;
7454;SDS011;3769;51.208;4.454;2024-01-11T23:07:54;42;;;31.4;;
7454;SDS011;3769;51.208;4.454;2024-01-11T23:12:54;42.4;;;32.4;;
7454;SDS011;3769;51.208;4.454;2024-01-11T23:17:54;43.5;;;33;;
7454;SDS011;3769;51.208;4.454;2024-01-11T23:22:55;48.5;;;33.5;;
7454;SDS011;3769;51.208;4.454;2024-01-11T23:27:54;42.9;;;34.2;;
7454;SDS011;3769;51.208;4.454;2024-01-11T23:32:54;43.9;;;34.8;;
7454;SDS011;3769;51.208;4.454;2024-01-11T23:37:54;43.9;;;34.5;;
7454;SDS011;3769;51.208;4.454;2024-01-11T23:42:54;42;;;34.6;;
7454;SDS011;3769;51.208;4.454;2024-01-11T23:47:54;42.9;;;34.8;;
7454;SDS011;3769;51.208;4.454;2024-01-11T23:52:55;47.8;;;34.1;;
7454;SDS011;3769;51.208;4.454;2024-01-11T23:57:54;44.7;;;35.8;;
